createdAt,value
2019-05-06T00:00:07.588Z,11.10
2019-05-06T00:02:10.824Z,11.00
2019-05-06T00:04:14.180Z,11.00
2019-05-06T00:06:17.411Z,11.00
2019-05-06T00:08:20.682Z,11.00
2019-05-06T00:10:27.230Z,11.00
2019-05-06T00:12:30.485Z,11.00
2019-05-06T00:14:34.030Z,11.00
2019-05-06T00:16:37.404Z,11.00
2019-05-06T00:18:40.734Z,11.00
2019-05-06T00:20:44.000Z,11.00
2019-05-06T00:22:47.315Z,11.00
2019-05-06T00:24:55.266Z,10.90
2019-05-06T00:27:16.796Z,10.90
2019-05-06T00:29:24.072Z,10.80
2019-05-06T00:31:26.667Z,10.80
2019-05-06T00:33:29.916Z,10.70
2019-05-06T00:35:34.239Z,10.70
2019-05-06T00:37:37.641Z,10.70
2019-05-06T00:39:44.419Z,10.70
2019-05-06T00:41:49.176Z,10.70
2019-05-06T00:43:54.436Z,10.70
2019-05-06T00:45:57.392Z,10.60
2019-05-06T00:48:00.630Z,10.60
2019-05-06T00:50:05.321Z,10.60
2019-05-06T00:52:08.834Z,10.60
2019-05-06T00:54:14.299Z,10.60
2019-05-06T00:56:17.770Z,10.60
2019-05-06T00:58:21.012Z,10.60
2019-05-06T01:00:26.054Z,10.60
2019-05-06T01:02:29.284Z,10.60
2019-05-06T01:04:33.864Z,10.60
2019-05-06T01:06:37.368Z,10.70
2019-05-06T01:08:40.612Z,10.70
2019-05-06T01:10:44.936Z,10.70
2019-05-06T01:13:08.067Z,10.70
2019-05-06T01:15:14.254Z,10.70
2019-05-06T01:17:17.626Z,10.70
2019-05-06T01:19:20.885Z,10.70
2019-05-06T01:21:24.154Z,10.70
2019-05-06T01:23:27.414Z,10.70
2019-05-06T01:25:30.727Z,10.70
2019-05-06T01:27:34.226Z,10.80
2019-05-06T01:29:37.458Z,10.80
2019-05-06T01:31:43.785Z,10.70
2019-05-06T01:33:45.742Z,10.70
2019-05-06T01:35:49.014Z,10.70
2019-05-06T01:37:54.548Z,10.70
2019-05-06T01:40:04.076Z,10.70
2019-05-06T01:42:09.221Z,10.70
2019-05-06T01:44:13.683Z,10.70
2019-05-06T01:46:17.061Z,10.70
2019-05-06T01:48:21.943Z,10.70
2019-05-06T01:50:25.202Z,10.70
2019-05-06T01:52:28.462Z,10.70
2019-05-06T01:54:31.701Z,10.70
2019-05-06T01:56:34.957Z,10.70
2019-05-06T01:58:38.202Z,10.60
2019-05-06T02:00:43.600Z,10.60
2019-05-06T02:02:46.424Z,10.60
2019-05-06T02:04:49.678Z,10.60
2019-05-06T02:06:54.536Z,10.60
2019-05-06T02:08:58.058Z,10.50
2019-05-06T02:11:01.297Z,10.50
2019-05-06T02:13:04.569Z,10.50
2019-05-06T02:15:07.835Z,10.50
2019-05-06T02:17:11.105Z,10.50
2019-05-06T02:19:14.860Z,10.40
2019-05-06T02:21:19.810Z,10.40
2019-05-06T02:23:27.745Z,10.40
2019-05-06T02:25:34.190Z,10.40
2019-05-06T02:27:37.673Z,10.30
2019-05-06T02:29:44.976Z,10.30
2019-05-06T02:32:15.466Z,10.30
2019-05-06T02:34:05.386Z,10.30
2019-05-06T02:36:26.562Z,10.20
2019-05-06T02:38:39.098Z,10.20
2019-05-06T02:40:36.438Z,10.30
2019-05-06T02:42:42.945Z,10.20
2019-05-06T02:44:44.671Z,10.20
2019-05-06T02:46:49.568Z,10.20
2019-05-06T02:49:13.235Z,10.20
2019-05-06T02:51:17.532Z,10.10
2019-05-06T02:53:23.574Z,10.10
2019-05-06T02:55:27.072Z,10.10
2019-05-06T02:57:33.256Z,10.10
2019-05-06T02:59:35.315Z,10.10
2019-05-06T03:01:38.654Z,10.10
2019-05-06T03:03:43.569Z,10.10
2019-05-06T03:05:46.969Z,10.10
2019-05-06T03:07:50.229Z,10.10
2019-05-06T03:09:53.522Z,10.10
2019-05-06T03:11:56.810Z,10.10
2019-05-06T03:14:03.018Z,10.10
2019-05-06T03:16:05.906Z,10.20
2019-05-06T03:18:09.535Z,10.20
2019-05-06T03:20:17.811Z,10.20
2019-05-06T03:22:24.090Z,10.20
2019-05-06T03:24:29.315Z,10.20
2019-05-06T03:26:33.898Z,10.20
2019-05-06T03:28:37.137Z,10.20
2019-05-06T03:30:45.216Z,10.20
2019-05-06T03:33:21.213Z,10.20
2019-05-06T03:35:13.799Z,10.20
2019-05-06T03:36:56.430Z,10.30
2019-05-06T03:39:02.965Z,10.30
2019-05-06T03:41:05.293Z,10.20
2019-05-06T03:43:08.554Z,10.20
2019-05-06T03:45:16.209Z,10.20
2019-05-06T03:47:23.475Z,10.30
2019-05-06T03:49:27.796Z,10.30
2019-05-06T03:51:33.497Z,10.20
2019-05-06T03:53:36.142Z,10.20
2019-05-06T03:55:39.479Z,10.20
2019-05-06T03:57:43.014Z,10.20
2019-05-06T03:59:46.519Z,10.10
2019-05-06T04:01:49.829Z,10.20
2019-05-06T04:03:56.965Z,10.20
2019-05-06T04:05:58.101Z,10.10
2019-05-06T04:08:03.885Z,10.10
2019-05-06T04:10:07.187Z,10.10
2019-05-06T04:12:12.771Z,10.10
2019-05-06T04:14:15.787Z,10.10
2019-05-06T04:16:33.747Z,10.00
2019-05-06T04:18:48.434Z,10.00
2019-05-06T04:20:53.411Z,10.00
2019-05-06T04:23:06.013Z,10.00
2019-05-06T04:25:07.905Z,10.00
2019-05-06T04:27:28.088Z,10.00
2019-05-06T04:29:35.228Z,9.90
2019-05-06T04:31:36.971Z,10.00
2019-05-06T04:33:40.232Z,9.90
2019-05-06T04:35:43.599Z,10.00
2019-05-06T04:37:46.842Z,9.90
2019-05-06T04:39:52.988Z,10.00
2019-05-06T04:41:55.170Z,10.00
2019-05-06T04:43:58.481Z,10.00
2019-05-06T04:46:03.202Z,10.00
2019-05-06T04:48:06.687Z,10.00
2019-05-06T04:50:12.922Z,10.00
2019-05-06T04:52:14.923Z,10.10
2019-05-06T04:54:18.172Z,10.00
2019-05-06T04:56:23.719Z,10.00
2019-05-06T04:58:26.421Z,10.10
2019-05-06T05:00:29.675Z,10.10
2019-05-06T05:02:33.698Z,10.10
2019-05-06T05:04:37.272Z,10.10
2019-05-06T05:06:43.075Z,10.20
2019-05-06T05:08:45.815Z,10.20
2019-05-06T05:10:53.434Z,10.20
2019-05-06T05:12:58.329Z,10.20
2019-05-06T05:15:12.189Z,10.20
2019-05-06T05:17:29.468Z,10.30
2019-05-06T05:19:33.028Z,10.30
2019-05-06T05:21:36.296Z,10.30
2019-05-06T05:23:39.705Z,10.40
2019-05-06T05:25:42.957Z,10.40
2019-05-06T05:27:46.234Z,10.40
2019-05-06T05:29:49.588Z,10.40
2019-05-06T05:31:53.071Z,10.40
2019-05-06T05:33:56.387Z,10.40
2019-05-06T05:35:59.658Z,10.50
2019-05-06T05:38:03.095Z,10.50
2019-05-06T05:40:06.629Z,10.60
2019-05-06T05:42:23.814Z,10.60
2019-05-06T05:44:29.021Z,10.60
2019-05-06T05:46:33.049Z,10.70
2019-05-06T05:48:54.334Z,10.70
2019-05-06T05:50:57.591Z,10.70
2019-05-06T05:53:02.443Z,10.70
2019-05-06T05:55:05.903Z,10.80
2019-05-06T05:57:09.257Z,10.80
2019-05-06T05:59:12.516Z,10.90
2019-05-06T06:01:15.766Z,10.90
2019-05-06T06:03:19.016Z,11.00
2019-05-06T06:05:22.277Z,11.00
2019-05-06T06:07:25.597Z,11.10
2019-05-06T06:09:32.752Z,11.10
2019-05-06T06:11:42.097Z,11.10
2019-05-06T06:13:45.536Z,11.20
2019-05-06T06:15:56.392Z,11.20
2019-05-06T06:18:04.025Z,11.20
2019-05-06T06:20:25.185Z,11.20
2019-05-06T06:22:30.145Z,11.20
2019-05-06T06:24:34.986Z,11.30
2019-05-06T06:26:38.225Z,11.30
2019-05-06T06:28:42.526Z,11.30
2019-05-06T06:30:56.346Z,11.30
2019-05-06T06:32:59.599Z,11.40
2019-05-06T06:35:12.037Z,11.40
2019-05-06T06:37:19.491Z,11.40
2019-05-06T06:39:33.102Z,11.40
2019-05-06T06:41:36.400Z,11.50
2019-05-06T06:43:42.025Z,11.50
2019-05-06T06:45:44.644Z,11.50
2019-05-06T06:47:48.067Z,11.60
2019-05-06T06:49:53.317Z,11.60
2019-05-06T06:51:56.289Z,11.60
2019-05-06T06:53:59.550Z,11.60
2019-05-06T06:56:22.036Z,11.60
2019-05-06T06:58:32.174Z,11.70
2019-05-06T07:00:45.819Z,11.70
2019-05-06T07:03:06.992Z,11.70
2019-05-06T07:05:28.703Z,11.80
2019-05-06T07:07:43.669Z,11.70
2019-05-06T07:09:38.485Z,11.80
2019-05-06T07:11:42.809Z,11.70
2019-05-06T07:13:49.517Z,11.70
2019-05-06T07:15:52.773Z,11.70
2019-05-06T07:17:56.070Z,11.80
2019-05-06T07:20:19.054Z,11.70
2019-05-06T07:22:23.975Z,11.80
2019-05-06T07:24:27.211Z,11.70
2019-05-06T07:26:35.014Z,11.80
2019-05-06T07:28:38.270Z,11.80
2019-05-06T07:30:42.026Z,11.70
2019-05-06T07:32:45.357Z,11.80
2019-05-06T07:34:48.673Z,11.70
2019-05-06T07:36:52.641Z,11.80
2019-05-06T07:38:56.021Z,11.80
2019-05-06T07:41:09.892Z,11.80
2019-05-06T07:43:30.754Z,11.80
2019-05-06T07:45:38.081Z,11.80
2019-05-06T07:48:00.759Z,11.80
2019-05-06T07:50:05.645Z,11.90
2019-05-06T07:52:08.927Z,11.90
2019-05-06T07:54:12.381Z,11.90
2019-05-06T07:56:15.739Z,11.90
2019-05-06T07:58:18.998Z,12.00
2019-05-06T08:00:23.004Z,12.00
2019-05-06T08:02:26.398Z,12.10
2019-05-06T08:04:29.662Z,12.20
2019-05-06T08:06:32.946Z,12.20
2019-05-06T08:08:36.662Z,12.30
2019-05-06T08:10:42.239Z,12.40
2019-05-06T08:12:44.997Z,12.50
2019-05-06T08:14:48.217Z,12.50
2019-05-06T08:17:02.333Z,12.60
2019-05-06T08:19:05.818Z,12.60
2019-05-06T08:21:13.667Z,12.70
2019-05-06T08:23:24.611Z,12.60
2019-05-06T08:25:29.481Z,12.60
2019-05-06T08:27:33.045Z,12.60
2019-05-06T08:29:36.404Z,12.60
2019-05-06T08:31:39.752Z,12.60
2019-05-06T08:33:43.325Z,12.60
2019-05-06T08:35:46.738Z,12.60
2019-05-06T08:37:50.258Z,12.60
2019-05-06T08:39:53.639Z,12.70
2019-05-06T08:41:56.888Z,12.70
2019-05-06T08:44:02.408Z,12.70
2019-05-06T08:46:05.118Z,12.80
2019-05-06T08:48:08.394Z,12.80
2019-05-06T08:50:13.548Z,12.90
2019-05-06T08:52:18.438Z,12.90
2019-05-06T08:54:23.370Z,12.90
2019-05-06T08:56:26.636Z,13.00
2019-05-06T08:58:45.575Z,13.00
2019-05-06T09:01:05.774Z,13.10
2019-05-06T09:03:09.048Z,13.10
2019-05-06T09:05:12.291Z,13.20
2019-05-06T09:07:15.530Z,13.20
2019-05-06T09:09:18.776Z,13.30
2019-05-06T09:11:25.629Z,13.40
2019-05-06T09:13:27.019Z,13.50
2019-05-06T09:15:32.544Z,13.60
2019-05-06T09:17:35.330Z,13.60
2019-05-06T09:19:38.608Z,13.70
2019-05-06T09:21:45.661Z,13.70
2019-05-06T09:23:46.917Z,13.70
2019-05-06T09:25:50.181Z,13.70
2019-05-06T09:28:02.583Z,13.70
2019-05-06T09:30:07.851Z,13.70
2019-05-06T09:32:15.352Z,13.70
2019-05-06T09:34:23.471Z,13.70
2019-05-06T09:36:39.974Z,13.70
2019-05-06T09:38:32.193Z,13.80
2019-05-06T09:40:35.525Z,13.80
2019-05-06T09:42:38.815Z,13.80
2019-05-06T09:44:43.541Z,13.80
2019-05-06T09:46:46.836Z,13.80
2019-05-06T09:49:12.642Z,13.80
2019-05-06T09:51:15.139Z,13.80
2019-05-06T09:53:20.036Z,13.80
2019-05-06T09:55:34.106Z,13.90
2019-05-06T09:57:55.477Z,13.80
2019-05-06T09:59:58.771Z,13.90
2019-05-06T10:02:02.086Z,13.90
2019-05-06T10:04:08.339Z,14.00
2019-05-06T10:06:13.130Z,14.00
2019-05-06T10:08:16.632Z,14.10
2019-05-06T10:10:19.901Z,14.20
2019-05-06T10:12:23.173Z,14.30
2019-05-06T10:14:26.408Z,14.30
2019-05-06T10:16:29.696Z,14.50
2019-05-06T10:18:32.946Z,14.50
2019-05-06T10:20:42.607Z,14.50
2019-05-06T10:22:45.970Z,14.60
2019-05-06T10:24:49.243Z,14.60
2019-05-06T10:26:54.154Z,14.60
2019-05-06T10:29:08.268Z,14.60
2019-05-06T10:31:13.170Z,14.60
2019-05-06T10:33:20.813Z,14.60
2019-05-06T10:35:26.813Z,14.70
2019-05-06T10:37:42.232Z,14.70
2019-05-06T10:39:48.977Z,14.80
2019-05-06T10:41:53.889Z,14.90
2019-05-06T10:44:15.607Z,15.00
2019-05-06T10:46:18.879Z,15.00
2019-05-06T10:48:22.618Z,15.00
2019-05-06T10:50:27.913Z,15.10
2019-05-06T10:52:33.329Z,15.10
2019-05-06T10:54:36.752Z,15.10
2019-05-06T10:56:52.366Z,15.10
2019-05-06T10:58:46.684Z,15.10
2019-05-06T11:00:52.913Z,15.20
2019-05-06T11:03:14.382Z,15.20
2019-05-06T11:05:15.022Z,15.20
2019-05-06T11:07:31.058Z,15.30
2019-05-06T11:09:23.238Z,15.40
2019-05-06T11:11:37.012Z,15.40
2019-05-06T11:13:32.264Z,15.50
2019-05-06T11:15:35.754Z,15.60
2019-05-06T11:17:39.005Z,15.60
2019-05-06T11:19:42.790Z,15.60
2019-05-06T11:21:46.164Z,15.60
2019-05-06T11:23:49.415Z,15.60
2019-05-06T11:25:52.862Z,15.60
2019-05-06T11:27:56.166Z,15.60
2019-05-06T11:30:02.286Z,15.50
2019-05-06T11:32:07.429Z,15.50
2019-05-06T11:34:14.924Z,15.40
2019-05-06T11:36:32.333Z,15.40
2019-05-06T11:38:35.686Z,15.40
2019-05-06T11:40:38.960Z,15.40
2019-05-06T11:42:43.700Z,15.50
2019-05-06T11:44:47.198Z,15.60
2019-05-06T11:46:52.331Z,15.60
2019-05-06T11:48:55.593Z,15.70
2019-05-06T11:51:00.508Z,15.70
2019-05-06T11:53:03.760Z,15.80
2019-05-06T11:55:07.448Z,15.80
2019-05-06T11:57:12.409Z,15.90
2019-05-06T11:59:17.782Z,15.90
2019-05-06T12:01:28.825Z,15.90
2019-05-06T12:03:32.689Z,16.00
2019-05-06T12:05:36.374Z,16.10
2019-05-06T12:07:39.625Z,16.20
2019-05-06T12:09:42.987Z,16.30
2019-05-06T12:11:46.271Z,16.40
2019-05-06T12:13:49.621Z,16.60
2019-05-06T12:15:52.927Z,16.70
2019-05-06T12:17:56.268Z,16.90
2019-05-06T12:19:59.529Z,17.00
2019-05-06T12:22:02.783Z,17.10
2019-05-06T12:24:06.082Z,17.20
2019-05-06T12:26:09.322Z,17.20
2019-05-06T12:28:12.594Z,17.20
2019-05-06T12:30:23.099Z,17.30
2019-05-06T12:32:28.003Z,17.40
2019-05-06T12:34:32.433Z,17.40
2019-05-06T12:36:35.844Z,17.40
2019-05-06T12:38:43.156Z,17.50
2019-05-06T12:40:45.794Z,17.60
2019-05-06T12:42:53.849Z,17.70
2019-05-06T12:44:58.889Z,17.80
2019-05-06T12:47:06.723Z,17.90
2019-05-06T12:49:12.567Z,18.00
2019-05-06T12:51:14.971Z,18.10
2019-05-06T12:53:18.221Z,18.10
2019-05-06T12:55:25.096Z,18.20
2019-05-06T12:57:26.991Z,18.30
2019-05-06T12:59:30.259Z,18.30
2019-05-06T13:01:34.269Z,18.40
2019-05-06T13:03:37.742Z,18.30
2019-05-06T13:05:42.798Z,18.30
2019-05-06T13:08:06.678Z,18.30
2019-05-06T13:10:10.200Z,18.30
2019-05-06T13:12:15.077Z,18.40
2019-05-06T13:14:18.350Z,18.40
2019-05-06T13:16:22.879Z,18.50
2019-05-06T13:18:26.380Z,18.50
2019-05-06T13:20:34.701Z,18.50
2019-05-06T13:22:53.358Z,18.40
2019-05-06T13:24:57.030Z,18.40
2019-05-06T13:27:02.278Z,18.30
2019-05-06T13:29:10.111Z,18.30
2019-05-06T13:31:20.508Z,18.20
2019-05-06T13:33:28.800Z,18.20
2019-05-06T13:35:32.822Z,18.10
2019-05-06T13:37:36.099Z,18.10
2019-05-06T13:39:39.405Z,18.20
2019-05-06T13:41:42.741Z,18.30
2019-05-06T13:43:50.711Z,18.30
2019-05-06T13:46:07.647Z,18.50
2019-05-06T13:48:13.301Z,18.60
2019-05-06T13:50:18.316Z,18.70
2019-05-06T13:52:23.164Z,18.70
2019-05-06T13:54:26.492Z,18.70
2019-05-06T13:56:29.967Z,18.70
2019-05-06T13:58:33.241Z,18.70
2019-05-06T14:00:37.057Z,18.80
2019-05-06T14:02:44.702Z,18.80
2019-05-06T14:04:48.023Z,18.80
2019-05-06T14:06:52.766Z,18.80
2019-05-06T14:08:56.232Z,18.80
2019-05-06T14:11:00.143Z,18.90
2019-05-06T14:13:04.766Z,18.90
2019-05-06T14:15:08.038Z,18.90
2019-05-06T14:17:12.739Z,18.90
2019-05-06T14:19:16.307Z,18.90
2019-05-06T14:21:19.557Z,18.90
2019-05-06T14:23:22.830Z,18.80
2019-05-06T14:25:44.490Z,18.70
2019-05-06T14:27:49.410Z,18.70
2019-05-06T14:30:09.552Z,18.60
2019-05-06T14:32:14.817Z,18.40
2019-05-06T14:34:17.867Z,18.30
2019-05-06T14:36:22.923Z,18.20
2019-05-06T14:38:26.094Z,18.10
2019-05-06T14:40:29.868Z,17.90
2019-05-06T14:42:33.227Z,17.80
2019-05-06T14:44:36.499Z,17.70
2019-05-06T14:46:56.773Z,17.60
2019-05-06T14:49:04.066Z,17.50
2019-05-06T14:51:05.003Z,17.40
2019-05-06T14:53:08.250Z,17.30
2019-05-06T14:55:15.357Z,17.30
2019-05-06T14:57:18.865Z,17.30
2019-05-06T14:59:23.401Z,17.20
2019-05-06T15:01:26.887Z,17.20
2019-05-06T15:03:32.441Z,17.20
2019-05-06T15:05:36.268Z,17.20
2019-05-06T15:07:41.965Z,17.20
2019-05-06T15:09:57.971Z,17.10
2019-05-06T15:11:49.799Z,17.10
2019-05-06T15:13:53.191Z,17.00
2019-05-06T15:15:56.524Z,17.00
2019-05-06T15:17:59.911Z,17.00
2019-05-06T15:20:04.150Z,17.00
2019-05-06T15:22:07.412Z,17.00
2019-05-06T15:24:13.488Z,16.90
2019-05-06T15:26:15.790Z,16.90
2019-05-06T15:28:19.070Z,16.90
2019-05-06T15:30:29.715Z,16.80
2019-05-06T15:32:34.700Z,16.70
2019-05-06T15:34:39.611Z,16.70
2019-05-06T15:36:44.546Z,16.60
2019-05-06T15:38:47.810Z,16.50
2019-05-06T15:40:52.476Z,16.50
2019-05-06T15:42:55.942Z,16.40
2019-05-06T15:44:59.230Z,16.40
2019-05-06T15:47:03.269Z,16.30
2019-05-06T15:49:06.660Z,16.20
2019-05-06T15:51:12.083Z,16.20
2019-05-06T15:53:14.941Z,16.10
2019-05-06T15:55:18.246Z,16.00
2019-05-06T15:57:22.919Z,16.00
2019-05-06T15:59:26.524Z,16.00
2019-05-06T16:01:33.203Z,16.00
2019-05-06T16:03:34.801Z,15.90
2019-05-06T16:05:38.060Z,15.90
2019-05-06T16:07:43.374Z,15.90
2019-05-06T16:09:46.384Z,15.90
2019-05-06T16:11:49.729Z,15.90
2019-05-06T16:13:53.403Z,15.90
2019-05-06T16:15:56.869Z,15.90
2019-05-06T16:18:02.414Z,15.90
2019-05-06T16:20:06.091Z,15.90
2019-05-06T16:22:09.391Z,16.00
2019-05-06T16:24:17.315Z,16.00
2019-05-06T16:26:22.820Z,16.00
2019-05-06T16:28:25.628Z,16.00
2019-05-06T16:30:28.905Z,16.00
2019-05-06T16:32:33.224Z,16.00
2019-05-06T16:34:36.638Z,16.00
2019-05-06T16:36:39.922Z,16.00
2019-05-06T16:38:43.174Z,16.00
2019-05-06T16:40:46.432Z,16.00
2019-05-06T16:42:49.868Z,16.00
2019-05-06T16:44:53.161Z,16.00
2019-05-06T16:46:56.504Z,16.00
2019-05-06T16:49:02.220Z,16.00
2019-05-06T16:51:04.967Z,15.90
2019-05-06T16:53:08.264Z,15.90
2019-05-06T16:55:16.036Z,15.90
2019-05-06T16:57:23.075Z,15.90
2019-05-06T16:59:26.026Z,15.90
2019-05-06T17:01:29.368Z,15.90
2019-05-06T17:03:40.041Z,15.90
2019-05-06T17:05:44.941Z,15.90
2019-05-06T17:07:52.218Z,15.90
2019-05-06T17:09:54.850Z,15.90
2019-05-06T17:11:58.120Z,15.90
2019-05-06T17:14:03.069Z,15.90
2019-05-06T17:16:07.890Z,15.90
2019-05-06T17:18:12.233Z,15.90
2019-05-06T17:20:15.711Z,15.80
2019-05-06T17:22:18.941Z,15.80
2019-05-06T17:24:22.316Z,15.80
2019-05-06T17:26:25.571Z,15.80
2019-05-06T17:28:33.561Z,15.80
2019-05-06T17:30:51.634Z,15.70
2019-05-06T17:33:02.205Z,15.70
2019-05-06T17:35:06.507Z,15.70
2019-05-06T17:37:12.509Z,15.70
2019-05-06T17:39:15.956Z,15.70
2019-05-06T17:41:19.339Z,15.70
2019-05-06T17:43:22.702Z,15.70
2019-05-06T17:45:43.159Z,15.70
2019-05-06T17:47:48.387Z,15.70
2019-05-06T17:49:52.890Z,15.70
2019-05-06T17:51:58.012Z,15.60
2019-05-06T17:54:03.202Z,15.60
2019-05-06T17:56:06.547Z,15.60
2019-05-06T17:58:09.835Z,15.60
2019-05-06T18:00:13.512Z,15.60
2019-05-06T18:02:19.295Z,15.60
2019-05-06T18:04:22.903Z,15.50
2019-05-06T18:06:26.244Z,15.40
2019-05-06T18:08:29.493Z,15.40
2019-05-06T18:10:33.612Z,15.40
2019-05-06T18:12:37.073Z,15.30
2019-05-06T18:14:40.403Z,15.30
2019-05-06T18:16:43.755Z,15.20
2019-05-06T18:18:47.149Z,15.20
2019-05-06T18:20:50.446Z,15.10
2019-05-06T18:22:53.756Z,15.10
2019-05-06T18:24:57.150Z,15.00
2019-05-06T18:27:02.483Z,15.00
2019-05-06T18:29:06.322Z,14.90
2019-05-06T18:31:09.663Z,14.90
2019-05-06T18:33:13.338Z,14.80
2019-05-06T18:35:16.790Z,14.70
2019-05-06T18:37:20.111Z,14.60
2019-05-06T18:39:23.401Z,14.60
2019-05-06T18:41:29.205Z,14.50
2019-05-06T18:43:33.167Z,14.50
2019-05-06T18:45:36.869Z,14.40
2019-05-06T18:47:41.873Z,14.30
2019-05-06T18:49:45.127Z,14.30
2019-05-06T18:51:51.234Z,14.20
2019-05-06T18:53:53.441Z,14.10
2019-05-06T18:55:56.711Z,14.10
2019-05-06T18:58:02.101Z,14.00
2019-05-06T19:00:08.313Z,13.90
2019-05-06T19:02:13.167Z,13.90
2019-05-06T19:04:24.527Z,13.80
2019-05-06T19:06:28.008Z,13.70
2019-05-06T19:08:33.415Z,13.70
2019-05-06T19:10:36.704Z,13.60
2019-05-06T19:12:41.611Z,13.60
2019-05-06T19:14:45.132Z,13.50
2019-05-06T19:16:52.167Z,13.40
2019-05-06T19:19:12.932Z,13.40
2019-05-06T19:21:16.252Z,13.30
2019-05-06T19:23:19.504Z,13.30
2019-05-06T19:25:22.832Z,13.20
2019-05-06T19:27:26.273Z,13.20
2019-05-06T19:29:29.612Z,13.10
2019-05-06T19:31:33.100Z,13.00
2019-05-06T19:33:36.449Z,13.00
2019-05-06T19:35:39.811Z,13.00
2019-05-06T19:37:43.291Z,12.90
2019-05-06T19:39:46.758Z,12.90
2019-05-06T19:41:50.371Z,12.90
2019-05-06T19:43:53.844Z,12.80
2019-05-06T19:45:57.420Z,12.80
2019-05-06T19:48:02.961Z,12.80
2019-05-06T19:50:06.170Z,12.70
2019-05-06T19:52:09.644Z,12.70
2019-05-06T19:54:13.064Z,12.70
2019-05-06T19:56:16.351Z,12.60
2019-05-06T19:58:19.731Z,12.60
2019-05-06T20:00:24.312Z,12.60
2019-05-06T20:02:27.678Z,12.50
2019-05-06T20:04:33.213Z,12.50
2019-05-06T20:06:41.103Z,12.50
2019-05-06T20:08:47.174Z,12.40
2019-05-06T20:10:58.266Z,12.40
2019-05-06T20:13:05.387Z,12.30
2019-05-06T20:15:26.541Z,12.30
2019-05-06T20:17:29.812Z,12.30
2019-05-06T20:19:34.291Z,12.30
2019-05-06T20:21:37.636Z,12.20
2019-05-06T20:23:42.535Z,12.20
2019-05-06T20:25:46.035Z,12.20
2019-05-06T20:27:49.392Z,12.20
2019-05-06T20:29:52.737Z,12.10
2019-05-06T20:31:56.087Z,12.10
2019-05-06T20:33:59.418Z,12.10
2019-05-06T20:36:02.722Z,12.10
2019-05-06T20:38:06.061Z,12.10
2019-05-06T20:40:11.746Z,12.00
2019-05-06T20:42:14.360Z,12.00
2019-05-06T20:44:17.660Z,12.00
2019-05-06T20:46:21.959Z,12.00
2019-05-06T20:48:25.398Z,12.00
2019-05-06T20:50:28.723Z,11.90
2019-05-06T20:52:33.201Z,11.90
2019-05-06T20:54:36.656Z,11.90
2019-05-06T20:56:42.019Z,11.80
2019-05-06T20:58:45.054Z,11.80
2019-05-06T21:00:48.325Z,11.80
2019-05-06T21:02:53.455Z,11.80
2019-05-06T21:04:56.728Z,11.70
2019-05-06T21:07:02.616Z,11.70
2019-05-06T21:09:06.609Z,11.60
2019-05-06T21:11:25.052Z,11.60
2019-05-06T21:13:28.669Z,11.60
2019-05-06T21:15:20.146Z,11.60
2019-05-06T21:17:23.414Z,11.60
2019-05-06T21:19:26.670Z,11.60
2019-05-06T21:21:31.833Z,11.50
2019-05-06T21:23:35.047Z,11.50
2019-05-06T21:25:38.374Z,11.50
2019-05-06T21:27:42.380Z,11.50
2019-05-06T21:29:45.831Z,11.40
2019-05-06T21:31:49.133Z,11.40
2019-05-06T21:33:52.464Z,11.40
2019-05-06T21:35:55.739Z,11.40
2019-05-06T21:37:59.038Z,11.40
2019-05-06T21:40:02.750Z,11.30
2019-05-06T21:42:06.210Z,11.30
2019-05-06T21:44:09.480Z,11.30
2019-05-06T21:46:13.043Z,11.30
2019-05-06T21:48:16.415Z,11.30
2019-05-06T21:50:19.658Z,11.30
2019-05-06T21:52:34.350Z,11.30
2019-05-06T21:54:27.971Z,11.30
2019-05-06T21:56:32.028Z,11.30
2019-05-06T21:58:35.401Z,11.30
2019-05-06T22:00:40.315Z,11.20
2019-05-06T22:02:43.584Z,11.20
2019-05-06T22:04:46.819Z,11.20
2019-05-06T22:06:52.259Z,11.20
2019-05-06T22:08:55.103Z,11.20
2019-05-06T22:11:00.098Z,11.20
2019-05-06T22:13:03.332Z,11.20
2019-05-06T22:15:09.215Z,11.10
2019-05-06T22:17:14.106Z,11.10
2019-05-06T22:19:17.522Z,11.10
2019-05-06T22:21:24.953Z,11.10
2019-05-06T22:23:29.945Z,11.00
2019-05-06T22:25:33.208Z,11.00
2019-05-06T22:27:36.562Z,11.00
2019-05-06T22:29:39.827Z,11.00
2019-05-06T22:31:43.135Z,11.00
2019-05-06T22:33:46.472Z,10.90
2019-05-06T22:35:49.761Z,10.90
2019-05-06T22:37:53.185Z,10.90
2019-05-06T22:39:56.496Z,10.90
2019-05-06T22:41:59.808Z,10.90
2019-05-06T22:44:13.317Z,10.80
2019-05-06T22:46:08.069Z,10.80
2019-05-06T22:48:12.109Z,10.80
2019-05-06T22:50:15.570Z,10.80
2019-05-06T22:52:18.810Z,10.70
2019-05-06T22:54:24.350Z,10.70
2019-05-06T22:56:27.053Z,10.70
2019-05-06T22:58:30.336Z,10.60
2019-05-06T23:00:35.265Z,10.60
2019-05-06T23:02:43.239Z,10.60
2019-05-06T23:04:54.165Z,10.50
2019-05-06T23:06:57.404Z,10.50
2019-05-06T23:09:02.527Z,10.50
2019-05-06T23:11:05.652Z,10.40
2019-05-06T23:13:08.894Z,10.40
2019-05-06T23:15:12.230Z,10.40
2019-05-06T23:17:15.554Z,10.40
2019-05-06T23:19:18.835Z,10.30
2019-05-06T23:21:23.227Z,10.30
2019-05-06T23:23:26.647Z,10.30
2019-05-06T23:25:29.906Z,10.30
2019-05-06T23:27:33.174Z,10.20
2019-05-06T23:29:36.438Z,10.20
2019-05-06T23:31:39.711Z,10.20
2019-05-06T23:33:43.874Z,10.20
2019-05-06T23:35:47.161Z,10.20
2019-05-06T23:38:27.107Z,10.20
2019-05-06T23:41:07.070Z,10.20
2019-05-06T23:43:47.417Z,10.10
2019-05-06T23:46:27.612Z,10.10
2019-05-06T23:49:07.517Z,10.00
2019-05-06T23:51:47.468Z,10.00
2019-05-06T23:54:27.666Z,9.90
2019-05-06T23:56:42.838Z,9.90
2019-05-06T23:58:45.729Z,9.90
